Pettit, Oklahoma
Current Conditions -  °F | °C
As of 3:35 AM on Monday 20 Oct 2014 (Local Time) from KTQH Reporting Station
Scattered Clouds Scattered Clouds  
Wind Chill: 54°   Ceiling: Unl
Heat Index: 54°   Visibility: 10mi
Dew Point: 50°   Wind: 0mph
Humidity: 88%   Direction: NA
Pressure: 30.06"   Gusts: NA
Location:  35.7526°N, 95.024°W
Report Text: KTQH 200835Z AUTO 00000KT 10SM SCT030 SCT070 SCT090 12/10 A3006 RMK AO2
Loading
Personal Weather Stations






























Interactive Weather Map New forecast layout! Learn more

10-Day Weather Forecast

Advertisements
Track Severe Weather on mobile